createdAt,value
2022-08-25T00:01:36.121Z,54.01
2022-08-25T00:04:11.015Z,53.80
2022-08-25T00:06:41.771Z,53.60
2022-08-25T00:09:16.077Z,53.61
2022-08-25T00:11:48.213Z,53.70
2022-08-25T00:14:21.313Z,53.73
2022-08-25T00:16:51.523Z,53.69
2022-08-25T00:19:24.341Z,54.22
2022-08-25T00:21:54.569Z,54.10
2022-08-25T00:24:27.652Z,54.05
2022-08-25T00:27:01.867Z,53.82
2022-08-25T00:29:38.100Z,53.84
2022-08-25T00:32:08.606Z,53.94
2022-08-25T00:34:40.705Z,54.17
2022-08-25T00:37:11.993Z,53.64
2022-08-25T00:39:44.824Z,53.97
2022-08-25T00:42:16.996Z,53.99
2022-08-25T00:44:47.026Z,53.63
2022-08-25T00:47:17.691Z,53.86
2022-08-25T00:49:50.902Z,54.27
2022-08-25T00:52:24.367Z,53.86
2022-08-25T00:55:08.128Z,54.03
2022-08-25T00:57:41.582Z,54.51
2022-08-25T01:00:16.248Z,54.33
2022-08-25T01:02:46.556Z,54.17
2022-08-25T01:05:17.647Z,54.27
2022-08-25T01:07:50.464Z,54.12
2022-08-25T01:10:25.904Z,54.43
2022-08-25T01:13:01.270Z,54.28
2022-08-25T01:15:32.781Z,54.41
2022-08-25T01:18:02.792Z,54.16
2022-08-25T01:20:34.826Z,54.64
2022-08-25T01:23:08.094Z,54.70
2022-08-25T01:25:48.622Z,54.34
2022-08-25T01:28:20.028Z,54.39
2022-08-25T01:30:50.204Z,54.31
2022-08-25T01:33:20.127Z,54.25
2022-08-25T01:35:50.339Z,54.64
2022-08-25T01:38:23.084Z,54.28
2022-08-25T01:40:53.139Z,54.24
2022-08-25T01:43:33.175Z,54.23
2022-08-25T01:46:03.259Z,54.31
2022-08-25T01:48:33.579Z,54.17
2022-08-25T01:51:03.554Z,54.69
2022-08-25T01:53:35.985Z,54.58
2022-08-25T01:56:12.928Z,54.75
2022-08-25T01:58:44.783Z,54.65
2022-08-25T02:01:18.305Z,54.76
2022-08-25T02:03:50.809Z,54.83
2022-08-25T02:06:29.727Z,54.57
2022-08-25T02:09:05.343Z,54.59
2022-08-25T02:11:35.972Z,54.77
2022-08-25T02:14:06.729Z,54.91
2022-08-25T02:16:39.002Z,54.92
2022-08-25T02:19:11.301Z,55.04
2022-08-25T02:21:41.723Z,54.89
2022-08-25T02:24:14.970Z,54.82
2022-08-25T02:26:45.009Z,54.87
2022-08-25T02:29:14.927Z,54.74
2022-08-25T02:31:44.760Z,54.53
2022-08-25T02:34:15.394Z,54.70
2022-08-25T02:36:46.779Z,54.71
2022-08-25T02:39:19.295Z,54.83
2022-08-25T02:41:49.231Z,54.52
2022-08-25T02:44:19.241Z,54.84
2022-08-25T02:46:49.078Z,54.86
2022-08-25T02:49:19.018Z,54.92
2022-08-25T02:51:48.844Z,54.54
2022-08-25T02:54:21.283Z,54.72
2022-08-25T02:56:51.394Z,54.54
2022-08-25T02:59:21.285Z,54.64
2022-08-25T03:01:51.175Z,54.25
2022-08-25T03:04:21.112Z,54.68
2022-08-25T03:06:51.220Z,54.86
2022-08-25T03:09:23.559Z,54.36
2022-08-25T03:11:53.440Z,54.56
2022-08-25T03:14:23.913Z,54.70
2022-08-25T03:16:53.856Z,54.44
2022-08-25T03:19:24.849Z,54.52
2022-08-25T03:21:56.410Z,54.51
2022-08-25T03:24:29.922Z,54.71
2022-08-25T03:26:57.155Z,54.82
2022-08-25T03:29:32.659Z,54.88
2022-08-25T03:32:03.507Z,54.53
2022-08-25T03:34:34.432Z,54.58
2022-08-25T03:37:05.709Z,54.54
2022-08-25T03:39:38.307Z,54.89
2022-08-25T03:42:08.611Z,54.87
2022-08-25T03:44:38.638Z,54.87
2022-08-25T03:47:09.240Z,54.92
2022-08-25T03:49:39.474Z,55.14
2022-08-25T03:52:09.634Z,54.75
2022-08-25T03:54:42.260Z,55.21
2022-08-25T03:57:12.139Z,54.86
2022-08-25T03:59:41.993Z,55.10
2022-08-25T04:02:12.086Z,55.04
2022-08-25T04:04:42.005Z,55.54
2022-08-25T04:07:11.810Z,55.47
2022-08-25T04:09:44.274Z,55.27
2022-08-25T04:12:14.087Z,55.67
2022-08-25T04:14:44.658Z,55.56
2022-08-25T04:17:14.480Z,55.49
2022-08-25T04:19:44.510Z,55.57
2022-08-25T04:22:14.698Z,55.55
2022-08-25T04:24:47.144Z,55.84
2022-08-25T04:27:17.022Z,55.94
2022-08-25T04:29:46.872Z,55.88
2022-08-25T04:32:16.708Z,56.25
2022-08-25T04:34:46.583Z,55.79
2022-08-25T04:37:16.969Z,55.93
2022-08-25T04:39:49.457Z,55.92
2022-08-25T04:42:19.393Z,56.25
2022-08-25T04:44:49.715Z,55.97
2022-08-25T04:47:19.541Z,56.19
2022-08-25T04:49:49.394Z,56.23
2022-08-25T04:52:19.542Z,56.50
2022-08-25T04:54:52.077Z,56.55
2022-08-25T04:57:21.877Z,56.59
2022-08-25T04:59:52.143Z,56.76
2022-08-25T05:02:22.313Z,56.38
2022-08-25T05:04:52.269Z,56.15
2022-08-25T05:07:22.189Z,56.63
2022-08-25T05:09:54.551Z,56.76
2022-08-25T05:12:24.469Z,56.52
2022-08-25T05:14:55.480Z,56.94
2022-08-25T05:17:25.336Z,56.84
2022-08-25T05:19:55.110Z,57.00
2022-08-25T05:22:24.908Z,56.73
2022-08-25T05:24:57.414Z,57.11
2022-08-25T05:27:30.118Z,56.75
2022-08-25T05:30:00.010Z,57.14
2022-08-25T05:32:29.861Z,57.45
2022-08-25T05:34:59.690Z,57.65
2022-08-25T05:37:29.627Z,57.25
2022-08-25T05:40:02.043Z,57.68
2022-08-25T05:42:31.910Z,57.63
2022-08-25T05:45:01.772Z,57.42
2022-08-25T05:47:31.669Z,57.85
2022-08-25T05:50:01.480Z,58.01
2022-08-25T05:52:31.390Z,57.90
2022-08-25T05:55:03.873Z,58.11
2022-08-25T05:57:33.709Z,57.85
2022-08-25T06:00:04.801Z,57.64
2022-08-25T06:02:46.499Z,57.94
2022-08-25T06:05:18.854Z,57.95
2022-08-25T06:07:49.770Z,58.12
2022-08-25T06:10:22.631Z,57.81
2022-08-25T06:12:52.531Z,58.06
2022-08-25T06:15:25.143Z,58.19
2022-08-25T06:18:01.650Z,57.98
2022-08-25T06:20:34.766Z,57.98
2022-08-25T06:23:04.677Z,58.14
2022-08-25T06:25:37.218Z,58.06
2022-08-25T06:28:07.370Z,58.30
2022-08-25T06:30:37.274Z,58.39
2022-08-25T06:33:07.265Z,58.00
2022-08-25T06:35:37.324Z,58.44
2022-08-25T06:38:07.429Z,58.15
2022-08-25T06:40:40.128Z,58.49
2022-08-25T06:43:10.002Z,58.52
2022-08-25T06:45:40.158Z,58.33
2022-08-25T06:48:09.956Z,58.21
2022-08-25T06:50:42.083Z,58.89
2022-08-25T06:53:12.056Z,58.62
2022-08-25T06:55:45.211Z,58.73
2022-08-25T06:58:15.065Z,58.14
2022-08-25T07:00:44.905Z,58.57
2022-08-25T07:03:14.900Z,58.43
2022-08-25T07:05:44.844Z,58.58
2022-08-25T07:08:14.680Z,58.30
2022-08-25T07:10:47.138Z,58.36
2022-08-25T07:13:18.273Z,58.51
2022-08-25T07:15:48.243Z,58.65
2022-08-25T07:18:18.363Z,58.56
2022-08-25T07:20:48.626Z,58.49
2022-08-25T07:23:18.792Z,58.24
2022-08-25T07:25:51.522Z,58.58
2022-08-25T07:28:22.919Z,58.80
2022-08-25T07:31:00.991Z,58.68
2022-08-25T07:33:30.923Z,58.67
2022-08-25T07:35:58.214Z,58.70
2022-08-25T07:38:28.946Z,58.93
2022-08-25T07:41:21.723Z,58.42
2022-08-25T07:43:51.770Z,58.49
2022-08-25T07:46:21.747Z,58.30
2022-08-25T07:48:53.093Z,58.84
2022-08-25T07:51:23.394Z,58.67
2022-08-25T07:53:53.456Z,58.67
2022-08-25T07:56:25.900Z,58.14
2022-08-25T07:58:58.993Z,58.36
2022-08-25T08:01:29.124Z,58.33
2022-08-25T08:04:03.407Z,58.27
2022-08-25T08:06:33.783Z,58.32
2022-08-25T08:09:03.939Z,58.07
2022-08-25T08:11:53.672Z,57.97
2022-08-25T08:14:24.136Z,57.93
2022-08-25T08:16:54.177Z,57.92
2022-08-25T08:19:24.706Z,57.99
2022-08-25T08:21:54.569Z,57.53
2022-08-25T08:24:44.615Z,57.67
2022-08-25T08:27:19.760Z,57.46
2022-08-25T08:29:52.314Z,57.36
2022-08-25T08:32:25.226Z,56.80
2022-08-25T08:35:05.709Z,56.80
2022-08-25T08:37:39.780Z,56.54
2022-08-25T08:40:12.137Z,56.71
2022-08-25T08:42:56.504Z,56.56
2022-08-25T08:45:43.702Z,56.40
2022-08-25T08:48:30.041Z,56.76
2022-08-25T08:51:09.746Z,56.16
2022-08-25T08:53:46.508Z,55.79
2022-08-25T08:56:19.450Z,55.63
2022-08-25T08:58:56.552Z,55.73
2022-08-25T09:01:30.714Z,55.28
2022-08-25T09:04:13.703Z,55.32
2022-08-25T09:06:48.014Z,55.23
2022-08-25T09:09:23.163Z,55.46
2022-08-25T09:11:59.522Z,55.92
2022-08-25T09:14:44.453Z,56.02
2022-08-25T09:17:22.602Z,55.43
2022-08-25T09:20:18.959Z,55.44
2022-08-25T09:22:57.659Z,55.65
2022-08-25T09:25:53.543Z,55.19
2022-08-25T09:28:29.013Z,54.89
2022-08-25T09:31:04.140Z,54.17
2022-08-25T09:33:36.586Z,53.67
2022-08-25T09:36:08.831Z,53.02
2022-08-25T09:38:40.135Z,52.78
2022-08-25T09:41:11.529Z,52.09
2022-08-25T09:43:45.044Z,51.83
2022-08-25T09:46:20.776Z,51.36
2022-08-25T09:48:56.568Z,51.69
2022-08-25T09:51:37.868Z,51.64
2022-08-25T09:54:25.421Z,51.17
2022-08-25T09:57:05.618Z,51.43
2022-08-25T09:59:39.972Z,50.53
2022-08-25T10:02:32.595Z,49.25
2022-08-25T10:05:02.591Z,48.49
2022-08-25T10:07:38.122Z,48.25
2022-08-25T10:10:21.559Z,47.98
2022-08-25T10:12:51.740Z,47.47
2022-08-25T10:15:29.703Z,47.11
2022-08-25T10:18:22.555Z,46.91
2022-08-25T10:21:10.434Z,47.84
2022-08-25T10:23:44.847Z,48.26
2022-08-25T10:26:25.854Z,47.48
2022-08-25T10:29:14.218Z,46.81
2022-08-25T10:31:52.026Z,47.27
2022-08-25T10:34:37.235Z,48.14
2022-08-25T10:37:16.081Z,48.52
2022-08-25T10:39:54.851Z,49.36
2022-08-25T10:42:36.625Z,49.43
2022-08-25T10:45:29.521Z,49.37
2022-08-25T10:48:30.338Z,49.68
2022-08-25T10:51:13.593Z,49.85
2022-08-25T10:53:58.476Z,48.42
2022-08-25T10:56:34.814Z,47.63
2022-08-25T10:59:32.436Z,47.39
2022-08-25T11:02:29.169Z,46.03
2022-08-25T11:05:06.882Z,45.96
2022-08-25T11:07:43.988Z,46.33
2022-08-25T11:10:18.453Z,46.51
2022-08-25T11:12:54.556Z,45.75
2022-08-25T11:15:28.974Z,45.64
2022-08-25T11:18:05.564Z,46.19
2022-08-25T11:20:57.429Z,45.02
2022-08-25T11:23:34.348Z,44.27
2022-08-25T11:26:14.132Z,43.69
2022-08-25T11:28:55.072Z,43.69
2022-08-25T11:31:28.042Z,43.90
2022-08-25T11:33:59.641Z,44.38
2022-08-25T11:36:33.935Z,43.10
2022-08-25T11:39:18.252Z,44.26
2022-08-25T11:42:01.593Z,44.46
2022-08-25T11:44:53.233Z,44.50
2022-08-25T11:47:36.998Z,44.56
2022-08-25T11:50:10.762Z,44.38
2022-08-25T11:52:51.174Z,45.23
2022-08-25T11:55:26.011Z,45.44
2022-08-25T11:58:23.394Z,45.77
2022-08-25T12:00:56.882Z,46.32
2022-08-25T12:03:50.678Z,45.96
2022-08-25T12:06:28.270Z,45.45
2022-08-25T12:09:23.357Z,46.05
2022-08-25T12:11:58.435Z,45.96
2022-08-25T12:14:55.339Z,45.45
2022-08-25T12:17:29.689Z,45.41
2022-08-25T12:20:02.024Z,45.79
2022-08-25T12:22:55.827Z,45.51
2022-08-25T12:25:43.604Z,45.66
2022-08-25T12:28:41.327Z,46.04
2022-08-25T12:31:23.050Z,45.75
2022-08-25T12:34:05.463Z,46.37
2022-08-25T12:36:37.822Z,46.74
2022-08-25T12:39:24.350Z,45.85
2022-08-25T12:44:42.821Z,45.08
2022-08-25T12:47:31.955Z,44.90
2022-08-25T12:50:39.246Z,45.30
2022-08-25T12:53:20.436Z,45.98
2022-08-25T12:55:54.451Z,45.29
2022-08-25T12:58:38.632Z,45.21
2022-08-25T13:01:35.604Z,45.50
2022-08-25T13:04:37.254Z,45.30
2022-08-25T13:07:26.030Z,45.48
2022-08-25T13:10:18.592Z,45.15
2022-08-25T13:13:05.934Z,44.66
2022-08-25T13:15:39.900Z,44.46
2022-08-25T13:18:35.208Z,44.43
2022-08-25T13:21:10.947Z,43.45
2022-08-25T13:23:45.821Z,43.57
2022-08-25T13:26:19.747Z,43.96
2022-08-25T13:28:56.892Z,43.74
2022-08-25T13:31:28.412Z,43.39
2022-08-25T13:34:05.311Z,43.21
2022-08-25T13:36:58.785Z,42.89
2022-08-25T13:39:52.623Z,42.78
2022-08-25T13:42:20.691Z,42.94
2022-08-25T13:44:58.549Z,42.95
2022-08-25T13:47:43.655Z,43.19
2022-08-25T13:50:26.493Z,43.44
2022-08-25T13:52:59.004Z,43.74
2022-08-25T13:55:50.782Z,43.93
2022-08-25T13:58:39.335Z,43.74
2022-08-25T14:01:23.167Z,43.83
2022-08-25T14:04:29.582Z,43.60
2022-08-25T14:07:34.127Z,44.07
2022-08-25T14:10:07.274Z,44.16
2022-08-25T14:12:41.088Z,44.03
2022-08-25T14:15:16.562Z,43.82
2022-08-25T14:17:48.954Z,43.51
2022-08-25T14:20:25.722Z,42.95
2022-08-25T14:23:01.779Z,43.74
2022-08-25T14:25:33.145Z,43.50
2022-08-25T14:28:07.176Z,44.11
2022-08-25T14:30:46.399Z,43.46
2022-08-25T14:33:17.950Z,43.77
2022-08-25T14:35:52.736Z,44.06
2022-08-25T14:38:26.616Z,44.10
2022-08-25T14:40:59.067Z,43.98
2022-08-25T14:43:33.372Z,43.51
2022-08-25T14:46:06.038Z,43.63
2022-08-25T14:48:43.766Z,43.73
2022-08-25T14:51:14.829Z,44.12
2022-08-25T14:53:47.702Z,43.46
2022-08-25T14:56:17.794Z,43.17
2022-08-25T14:58:48.371Z,43.13
2022-08-25T15:01:28.985Z,42.77
2022-08-25T15:04:04.545Z,42.70
2022-08-25T15:06:36.494Z,42.40
2022-08-25T15:09:11.525Z,43.32
2022-08-25T15:11:46.044Z,43.58
2022-08-25T15:14:17.741Z,43.96
2022-08-25T15:16:50.231Z,43.68
2022-08-25T15:19:23.541Z,43.61
2022-08-25T15:21:54.324Z,44.14
2022-08-25T15:24:33.942Z,43.81
2022-08-25T15:27:10.123Z,43.76
2022-08-25T15:29:40.938Z,43.40
2022-08-25T15:32:12.501Z,42.78
2022-08-25T15:34:42.337Z,43.36
2022-08-25T15:37:14.738Z,43.26
2022-08-25T15:39:49.249Z,43.24
2022-08-25T15:42:19.462Z,43.42
2022-08-25T15:44:53.081Z,43.59
2022-08-25T15:47:24.180Z,43.46
2022-08-25T15:50:01.814Z,43.01
2022-08-25T15:52:46.196Z,43.66
2022-08-25T15:55:21.292Z,43.53
2022-08-25T15:57:51.394Z,43.49
2022-08-25T16:00:22.796Z,43.60
2022-08-25T16:02:53.525Z,44.06
2022-08-25T16:05:26.010Z,43.79
2022-08-25T16:07:56.230Z,44.25
2022-08-25T16:10:29.215Z,44.58
2022-08-25T16:12:59.047Z,44.24
2022-08-25T16:15:29.085Z,44.19
2022-08-25T16:18:01.237Z,44.20
2022-08-25T16:20:31.847Z,44.30
2022-08-25T16:23:04.140Z,44.57
2022-08-25T16:25:36.707Z,44.00
2022-08-25T16:28:07.055Z,44.86
2022-08-25T16:30:37.013Z,44.02
2022-08-25T16:33:07.486Z,44.40
2022-08-25T16:35:40.692Z,44.45
2022-08-25T16:38:12.608Z,44.87
2022-08-25T16:40:45.951Z,44.92
2022-08-25T16:43:17.738Z,45.03
2022-08-25T16:45:47.556Z,44.83
2022-08-25T16:48:17.443Z,44.65
2022-08-25T16:50:47.811Z,44.39
2022-08-25T16:53:33.596Z,45.00
2022-08-25T16:56:09.708Z,44.98
2022-08-25T16:58:41.265Z,44.89
2022-08-25T17:01:12.931Z,44.85
2022-08-25T17:03:44.841Z,45.03
2022-08-25T17:06:15.270Z,45.16
2022-08-25T17:08:45.878Z,45.22
2022-08-25T17:11:20.600Z,45.48
2022-08-25T17:13:54.039Z,44.99
2022-08-25T17:16:29.901Z,45.08
2022-08-25T17:19:04.018Z,45.72
2022-08-25T17:21:37.413Z,45.59
2022-08-25T17:24:08.048Z,45.30
2022-08-25T17:26:44.632Z,45.83
2022-08-25T17:29:14.585Z,45.57
2022-08-25T17:31:46.367Z,45.54
2022-08-25T17:34:22.485Z,45.55
2022-08-25T17:36:54.564Z,45.28
2022-08-25T17:39:25.273Z,45.65
2022-08-25T17:41:57.770Z,46.00
2022-08-25T17:44:29.456Z,45.94
2022-08-25T17:47:00.013Z,45.92
2022-08-25T17:49:30.249Z,46.24
2022-08-25T17:52:01.087Z,46.56
2022-08-25T17:54:31.219Z,46.07
2022-08-25T17:57:04.417Z,46.51
2022-08-25T17:59:34.771Z,46.51
2022-08-25T18:02:04.901Z,46.92
2022-08-25T18:04:35.115Z,46.72
2022-08-25T18:07:07.902Z,47.12
2022-08-25T18:09:37.679Z,47.02
2022-08-25T18:12:10.712Z,47.25
2022-08-25T18:14:41.938Z,46.67
2022-08-25T18:17:21.943Z,46.66
2022-08-25T18:19:52.830Z,47.11
2022-08-25T18:22:23.209Z,47.43
2022-08-25T18:24:53.193Z,47.35
2022-08-25T18:27:28.502Z,48.09
2022-08-25T18:29:58.941Z,47.65
2022-08-25T18:32:29.295Z,47.50
2022-08-25T18:34:59.692Z,48.25
2022-08-25T18:37:42.163Z,48.10
2022-08-25T18:40:26.208Z,48.40
2022-08-25T18:43:00.419Z,48.82
2022-08-25T18:45:32.750Z,48.73
2022-08-25T18:48:03.653Z,48.39
2022-08-25T18:50:38.645Z,48.92
2022-08-25T18:53:08.917Z,48.97
2022-08-25T18:55:40.353Z,49.09
2022-08-25T18:58:14.451Z,48.89
2022-08-25T19:00:46.021Z,49.06
2022-08-25T19:03:17.385Z,49.14
2022-08-25T19:05:49.374Z,49.36
2022-08-25T19:08:27.816Z,49.69
2022-08-25T19:10:57.640Z,49.62
2022-08-25T19:13:30.072Z,49.35
2022-08-25T19:16:00.134Z,49.38
2022-08-25T19:18:30.266Z,49.72
2022-08-25T19:21:00.864Z,49.62
2022-08-25T19:23:31.124Z,50.07
2022-08-25T19:26:01.775Z,50.06
2022-08-25T19:28:36.387Z,49.94
2022-08-25T19:31:08.260Z,49.83
2022-08-25T19:33:44.717Z,50.06
2022-08-25T19:36:15.962Z,49.78
2022-08-25T19:38:46.485Z,50.13
2022-08-25T19:41:16.331Z,50.19
2022-08-25T19:43:56.069Z,50.13
2022-08-25T19:46:32.274Z,49.97
2022-08-25T19:49:07.591Z,50.70
2022-08-25T19:51:39.663Z,50.43
2022-08-25T19:54:10.777Z,50.52
2022-08-25T19:56:53.695Z,50.42
2022-08-25T19:59:40.364Z,50.39
2022-08-25T20:02:16.728Z,50.39
2022-08-25T20:04:49.786Z,50.84
2022-08-25T20:07:22.893Z,50.43
2022-08-25T20:09:54.110Z,50.90
2022-08-25T20:12:39.526Z,50.59
2022-08-25T20:15:13.712Z,50.83
2022-08-25T20:17:46.838Z,50.43
2022-08-25T20:20:21.800Z,50.72
2022-08-25T20:22:52.877Z,50.73
2022-08-25T20:25:23.307Z,50.77
2022-08-25T20:27:55.715Z,51.05
2022-08-25T20:30:31.711Z,51.02
2022-08-25T20:33:02.674Z,51.30
2022-08-25T20:35:32.677Z,51.24
2022-08-25T20:38:02.612Z,51.08
2022-08-25T20:40:33.560Z,50.66
2022-08-25T20:43:04.880Z,50.94
2022-08-25T20:45:45.069Z,50.68
2022-08-25T20:48:14.875Z,51.11
2022-08-25T20:50:44.690Z,51.16
2022-08-25T20:53:15.323Z,51.01
2022-08-25T20:55:45.688Z,51.19
2022-08-25T20:58:17.099Z,51.55
2022-08-25T21:00:49.737Z,51.22
2022-08-25T21:03:19.741Z,51.50
2022-08-25T21:05:54.042Z,51.22
2022-08-25T21:08:25.560Z,51.37
2022-08-25T21:10:55.428Z,51.14
2022-08-25T21:13:25.293Z,50.84
2022-08-25T21:15:59.089Z,51.40
2022-08-25T21:18:31.635Z,51.16
2022-08-25T21:21:11.140Z,51.27
2022-08-25T21:23:41.264Z,51.02
2022-08-25T21:26:16.435Z,51.25
2022-08-25T21:28:47.636Z,51.18
2022-08-25T21:31:24.712Z,51.26
2022-08-25T21:33:56.609Z,51.57
2022-08-25T21:36:29.083Z,51.58
2022-08-25T21:39:01.375Z,51.52
2022-08-25T21:41:33.622Z,51.35
2022-08-25T21:44:04.519Z,51.35
2022-08-25T21:46:39.048Z,51.71
2022-08-25T21:49:10.785Z,51.35
2022-08-25T21:51:44.590Z,51.87
2022-08-25T21:54:17.650Z,51.40
2022-08-25T21:56:51.998Z,51.76
2022-08-25T21:59:24.243Z,51.65
2022-08-25T22:01:57.992Z,51.20
2022-08-25T22:04:28.498Z,50.75
2022-08-25T22:07:02.506Z,51.44
2022-08-25T22:09:33.753Z,51.29
2022-08-25T22:12:03.618Z,51.24
2022-08-25T22:14:33.920Z,51.48
2022-08-25T22:17:10.058Z,51.34
2022-08-25T22:19:43.824Z,51.22
2022-08-25T22:22:15.806Z,51.39
2022-08-25T22:24:50.803Z,51.82
2022-08-25T22:27:23.538Z,51.24
2022-08-25T22:29:53.870Z,51.15
2022-08-25T22:32:26.340Z,51.46
2022-08-25T22:34:56.542Z,51.37
2022-08-25T22:37:26.335Z,51.25
2022-08-25T22:39:56.192Z,51.06
2022-08-25T22:42:27.217Z,51.60
2022-08-25T22:44:57.069Z,51.45
2022-08-25T22:47:29.791Z,51.15
2022-08-25T22:50:01.023Z,51.33
2022-08-25T22:52:33.717Z,51.29
2022-08-25T22:55:05.571Z,51.11
2022-08-25T22:57:41.408Z,51.65
2022-08-25T23:00:14.220Z,50.93
2022-08-25T23:02:47.553Z,51.30
2022-08-25T23:05:18.047Z,51.22
2022-08-25T23:07:47.852Z,51.24
2022-08-25T23:10:17.723Z,51.29
2022-08-25T23:12:47.710Z,51.47
2022-08-25T23:15:17.604Z,51.63
2022-08-25T23:17:50.657Z,51.85
2022-08-25T23:20:33.178Z,51.75
2022-08-25T23:23:03.078Z,51.41
2022-08-25T23:25:33.194Z,51.64
2022-08-25T23:28:03.410Z,51.45
2022-08-25T23:30:33.375Z,51.65
2022-08-25T23:33:06.101Z,51.82
2022-08-25T23:35:36.246Z,51.51
2022-08-25T23:38:06.502Z,51.70
2022-08-25T23:40:36.343Z,52.09
2022-08-25T23:43:06.449Z,51.85
2022-08-25T23:45:36.436Z,51.74
2022-08-25T23:48:10.587Z,51.72
2022-08-25T23:50:43.598Z,51.76
2022-08-25T23:53:13.628Z,51.86
2022-08-25T23:55:51.184Z,51.75
2022-08-25T23:58:24.063Z,51.99
